Captain Ed — WDF6338 — position and weather

sailwx.info

Track history (hours):
 
Tides and Currents Weather Stations Pressure Air Temp Water Temp Dewpoint Dewpoint Depression Visibility Wind Speed Wind Dir Waves Ship Positions

Captain Ed

Owner: Norfolk Dredging Company, Chesapeake, VA. More information available from US FCC via Universal Licensing System and Coast Guard Vessel Documentation Center.

Last reported at 2018-Feb-22 22:30 UTC. Time now 2018-Feb-22 22:35 UTC.
Position N 39°49' W 075°23'.

Length 22 m; draft 3 m.

Type: Tug. MMSI: 367473210.

Date/timePositionNaut miles runAvg speedWind from/ knotsBaromVisibWave heightAir tempDewpointWater temp
2018-Feb-22 22:30N 39°49' W 075°23'0 0.0
2018-Feb-22 22:00N 39°49' W 075°23'0 0.0
2018-Feb-22 21:30N 39°49' W 075°23'0 0.0
2018-Feb-22 21:00N 39°49' W 075°23'0 0.0
2018-Feb-22 20:31N 39°49' W 075°23'3 6.2
2018-Feb-22 20:00N 39°47' W 075°27'1 1.1
2018-Feb-22 19:31N 39°47' W 075°26'1 2.6
2018-Feb-22 19:01N 39°48' W 075°25'0 0.2
2018-Feb-22 18:31N 39°48' W 075°25'0 0.2
2018-Feb-22 18:01N 39°48' W 075°25'0 0.0
2018-Feb-22 17:30N 39°48' W 075°25'0 0.0
2018-Feb-22 17:01N 39°48' W 075°25'0 0.0
2018-Feb-22 16:30N 39°48' W 075°25'0 0.0
2018-Feb-22 16:00N 39°48' W 075°25'0 0.0
2018-Feb-22 15:30N 39°48' W 075°25'0 0.0
2018-Feb-22 15:01N 39°48' W 075°25'0 0.0
2018-Feb-22 14:29N 39°48' W 075°25'1 2.9
2018-Feb-22 14:00N 39°47' W 075°26'0 1.0
2018-Feb-22 13:31N 39°47' W 075°27'1 2.3
2018-Feb-22 13:00N 39°48' W 075°26'1 1.4
2018-Feb-22 12:30N 39°48' W 075°25'0 0.0
2018-Feb-22 12:01N 39°48' W 075°25'0 0.0
2018-Feb-22 11:30N 39°48' W 075°25'0 0.0
2018-Feb-22 11:01N 39°48' W 075°25'0 0.0
2018-Feb-22 10:30N 39°48' W 075°25'0 0.0
2018-Feb-22 10:00N 39°48' W 075°25'0 0.0
2018-Feb-22 09:30N 39°48' W 075°25'0 0.0
2018-Feb-22 08:58N 39°48' W 075°25'0 0.0
2018-Feb-22 08:30N 39°48' W 075°25'2 3.7
2018-Feb-22 08:00N 39°47' W 075°27'0 0.0
2018-Feb-22 07:31N 39°47' W 075°27'0 0.0
2018-Feb-22 07:00N 39°47' W 075°27'0 0.0
2018-Feb-22 06:30N 39°47' W 075°27'0 0.1
2018-Feb-22 06:01N 39°47' W 075°27'0 0.0
2018-Feb-22 05:31N 39°47' W 075°27'2 3.6
2018-Feb-22 05:00N 39°48' W 075°25'0 0.4
2018-Feb-22 04:30N 39°48' W 075°25'1 2.5
2018-Feb-22 04:01N 39°49' W 075°24'1 2.4
2018-Feb-22 03:30N 39°48' W 075°25'0 0.5
2018-Feb-22 03:00N 39°48' W 075°25'0 0.4
2018-Feb-22 02:30N 39°48' W 075°25'0 0.0
2018-Feb-22 02:01N 39°48' W 075°25'0 0.0
2018-Feb-22 01:31N 39°48' W 075°25'2 3.6
2018-Feb-22 01:01N 39°47' W 075°27'0 0.0
2018-Feb-22 00:30N 39°47' W 075°27'2 3.6
2018-Feb-22 00:01N 39°48' W 075°25'0 0.0
2018-Feb-21 23:29N 39°48' W 075°25'2 4.0
2018-Feb-21 23:01N 39°49' W 075°23'4 7.1
2018-Feb-21 22:30N 39°47' W 075°27'1 1.3
2018-Feb-21 22:00N 39°47' W 075°26'2 3.6
2018-Feb-21 21:30N 39°49' W 075°24'1 2.9
2018-Feb-21 21:01N 39°50' W 075°23'1 1.3
2018-Feb-21 20:31N 39°49' W 075°23'0 0.0
2018-Feb-21 20:00N 39°49' W 075°23'0 0.0
2018-Feb-21 19:30N 39°49' W 075°23'0 0.0
2018-Feb-21 19:00N 39°49' W 075°23'2 3.1
2018-Feb-21 18:30N 39°48' W 075°25'2 3.4
2018-Feb-21 18:00N 39°49' W 075°23'0 0.1
2018-Feb-21 17:30N 39°49' W 075°23'0 0.3
2018-Feb-21 17:00N 39°49' W 075°23'2 3.1
2018-Feb-21 16:30N 39°48' W 075°25'2 3.1
2018-Feb-21 16:00N 39°49' W 075°23'0 0.0
2018-Feb-21 15:30N 39°49' W 075°23'2 3.1
2018-Feb-21 15:00N 39°48' W 075°25'1 2.0
2018-Feb-21 14:30N 39°48' W 075°26'3 6.2
2018-Feb-21 14:00N 39°50' W 075°23'2 4.3
2018-Feb-21 13:30N 39°48' W 075°25'0 0.1
2018-Feb-21 13:00N 39°48' W 075°25'0 0.5
2018-Feb-21 12:30N 39°48' W 075°25'2 3.4
2018-Feb-21 12:00N 39°49' W 075°23'0 0.0
2018-Feb-21 11:30N 39°49' W 075°23'0 0.0
2018-Feb-21 11:00N 39°49' W 075°23'0 0.0
2018-Feb-21 10:31N 39°49' W 075°23'0 0.0
2018-Feb-21 10:00N 39°49' W 075°23'0 0.0
2018-Feb-21 09:30N 39°49' W 075°23'0 0.0
2018-Feb-21 09:00N 39°49' W 075°23'0 0.0
2018-Feb-21 08:29N 39°49' W 075°23'0 0.0
2018-Feb-21 08:00N 39°49' W 075°23'0 0.0
2018-Feb-21 07:30N 39°49' W 075°23'0 0.0
2018-Feb-21 07:00N 39°49' W 075°23'0 0.0
2018-Feb-21 06:30N 39°49' W 075°23'0 0.0
2018-Feb-21 06:00N 39°49' W 075°23'0 0.0
2018-Feb-21 05:30N 39°49' W 075°23'0 0.0
2018-Feb-21 05:00N 39°49' W 075°23'0 0.0
2018-Feb-21 04:30N 39°49' W 075°23'0 0.0
2018-Feb-21 04:00N 39°49' W 075°23'0 0.0
2018-Feb-21 03:30N 39°49' W 075°23'0 0.0
2018-Feb-21 03:00N 39°49' W 075°23'0 0.0
2018-Feb-21 02:30N 39°49' W 075°23'0 0.0
2018-Feb-21 02:00N 39°49' W 075°23'0 0.0
2018-Feb-21 01:30N 39°49' W 075°23'0 0.0
2018-Feb-21 01:00N 39°49' W 075°23'0 0.0
2018-Feb-21 00:31N 39°49' W 075°23'0 0.0
2018-Feb-21 00:00N 39°49' W 075°23'0 0.0
2018-Feb-20 23:30N 39°49' W 075°23'0 0.0
2018-Feb-20 23:00N 39°49' W 075°23'0 0.5
2018-Feb-20 22:30N 39°49' W 075°24'0 0.8
2018-Feb-20 22:00N 39°49' W 075°23'0 0.3
2018-Feb-20 21:30N 39°49' W 075°23'0 0.0
2018-Feb-20 21:01N 39°49' W 075°23'0 0.0
2018-Feb-20 20:30N 39°49' W 075°23'0 0.0
2018-Feb-20 20:00N 39°49' W 075°23'0 0.0
2018-Feb-20 19:30N 39°49' W 075°23'0 0.0
2018-Feb-20 19:00N 39°49' W 075°23'0 0.0
2018-Feb-20 18:30N 39°49' W 075°23'0 0.0
2018-Feb-20 18:00N 39°49' W 075°23'0 0.0
2018-Feb-20 17:30N 39°49' W 075°23'0 1.0
2018-Feb-20 17:00N 39°50' W 075°23'0 0.0
2018-Feb-20 16:30N 39°50' W 075°23'0 0.0
2018-Feb-20 16:00N 39°50' W 075°23'0 0.3
2018-Feb-20 15:30N 39°49' W 075°23'0 0.7
2018-Feb-20 14:59N 39°49' W 075°23'0 0.0
2018-Feb-20 14:29N 39°49' W 075°23'0 0.0
2018-Feb-20 14:00N 39°49' W 075°23'0 0.0
2018-Feb-20 13:30N 39°49' W 075°23'0 0.0
2018-Feb-20 13:00N 39°49' W 075°23'0 0.0
2018-Feb-20 12:30N 39°49' W 075°23'0 0.0
2018-Feb-20 12:01N 39°49' W 075°23'0 0.0
2018-Feb-20 11:31N 39°49' W 075°23'0 0.0
2018-Feb-20 11:01N 39°49' W 075°23'0 0.0
2018-Feb-20 10:30N 39°49' W 075°23'0 0.0
2018-Feb-20 10:00N 39°49' W 075°23'1 1.6
2018-Feb-20 09:31N 39°49' W 075°23'0 0.1
2018-Feb-20 09:00N 39°49' W 075°22'0 0.1
2018-Feb-20 08:31N 39°50' W 075°22'0 0.1
2018-Feb-20 08:00N 39°49' W 075°22'0 0.0
2018-Feb-20 07:30N 39°49' W 075°22'0 0.0
2018-Feb-20 07:00N 39°49' W 075°22'0 0.0
2018-Feb-20 06:31N 39°49' W 075°22'0 0.0
2018-Feb-20 06:01N 39°49' W 075°22'0 0.0
2018-Feb-20 05:31N 39°49' W 075°22'0 0.1
2018-Feb-20 05:00N 39°49' W 075°22'0 0.1
2018-Feb-20 04:30N 39°49' W 075°23'2 3.3
2018-Feb-20 04:00N 39°49' W 075°24'1 1.9
2018-Feb-20 03:30N 39°48' W 075°25'2 4.5
2018-Feb-20 03:00N 39°49' W 075°23'0 0.2
2018-Feb-20 02:30N 39°49' W 075°23'2 3.1
2018-Feb-20 02:00N 39°48' W 075°25'1 1.3
2018-Feb-20 01:30N 39°48' W 075°25'0 0.0
2018-Feb-20 01:00N 39°48' W 075°25'0 0.0
2018-Feb-20 00:30N 39°48' W 075°25'0 0.0
2018-Feb-20 00:00N 39°48' W 075°25'0 0.0
2018-Feb-19 23:30N 39°48' W 075°25'0 0.0
2018-Feb-19 23:00N 39°48' W 075°25'0 0.0
2018-Feb-19 22:30N 39°48' W 075°25'0 0.0
2018-Feb-19 22:00N 39°48' W 075°25'0 0.0
2018-Feb-19 21:30N 39°48' W 075°25'0 0.1
2018-Feb-19 21:00N 39°48' W 075°26'1 2.1
2018-Feb-19 20:30N 39°48' W 075°24'1 1.7
2018-Feb-19 20:01N 39°48' W 075°25'0 0.7
2018-Feb-19 19:30N 39°48' W 075°25'2 4.1
2018-Feb-19 19:00N 39°47' W 075°27'5 9.5
2018-Feb-19 18:31N 39°43' W 075°30'510.2
2018-Feb-19 18:01N 39°38' W 075°34'5 9.1
2018-Feb-19 17:31N 39°34' W 075°33'4 8.3
2018-Feb-19 17:01N 39°33' W 075°38'4 8.9
2018-Feb-19 16:31N 39°32' W 075°44'4 8.7
2018-Feb-19 16:01N 39°32' W 075°50'4 8.8
2018-Feb-19 15:31N 39°30' W 075°55'5 9.6
2018-Feb-19 15:01N 39°27' W 075°59'4 8.6
2018-Feb-19 14:31N 39°24' W 076°03'5 9.0
2018-Feb-19 13:58N 39°22' W 076°09'4 8.0
2018-Feb-19 13:30N 39°19' W 076°12'6 8.3
2018-Feb-19 12:49N 39°14' W 076°15'2 8.0
2018-Feb-19 12:31N 39°12' W 076°16'4 8.1
2018-Feb-19 12:00N 39°08' W 076°20'4 8.3
2018-Feb-19 11:30N 39°04' W 076°21'4 8.7
2018-Feb-19 11:00N 39°00' W 076°23'4 8.3
2018-Feb-19 10:30N 38°56' W 076°24'4 8.4
2018-Feb-19 10:00N 38°52' W 076°26'4 8.6
2018-Feb-19 09:30N 38°48' W 076°27'93 7.7
2018-Feb-18 21:25N 37°16' W 076°10'3 7.2
2018-Feb-18 20:58N 37°12' W 076°11'4 7.5
2018-Feb-18 20:27N 37°09' W 076°12'4 7.5
2018-Feb-18 19:57N 37°05' W 076°13'4 7.8
2018-Feb-18 19:27N 37°01' W 076°15'4 8.5
2018-Feb-18 18:58N 36°59' W 076°19'4 9.0
2018-Feb-18 18:30N 36°55' W 076°20'4 8.4
2018-Feb-18 18:00N 36°51' W 076°18'3 5.0
2018-Feb-18 17:30N 36°49' W 076°17'3 5.1
2018-Feb-18 17:00N 36°46' W 076°18'3 5.1
2018-Feb-18 16:29N 36°44' W 076°16'2 3.2
2018-Feb-18 16:00N 36°43' W 076°14'1 0.4
2018-Feb-18 12:26N 36°43' W 076°13'0 0.0
2018-Feb-18 01:41N 36°43' W 076°13'1 6.4
2018-Feb-18 01:30N 36°43' W 076°14'1 2.4
2018-Feb-18 01:00N 36°44' W 076°15'2 4.6
2018-Feb-18 00:30N 36°45' W 076°18'3 5.7
2018-Feb-18 00:00N 36°48' W 076°18'4 7.4
2018-Feb-17 23:30N 36°51' W 076°19'2 3.6
2018-Feb-17 23:00N 36°52' W 076°20'4 7.4
2018-Feb-17 22:28N 36°56' W 076°20'3 6.1
2018-Feb-17 21:58N 36°59' W 076°19'3 5.4
2018-Feb-17 21:28N 37°01' W 076°16'3 6.1
2018-Feb-17 20:57N 37°03' W 076°14'4 7.2
2018-Feb-17 20:27N 37°06' W 076°12'4 7.3
2018-Feb-17 19:57N 37°10' W 076°11'97 6.6
2018-Feb-17 05:13N 38°46' W 076°28'2 7.9
2018-Feb-17 04:58N 38°48' W 076°27'4 8.2
2018-Feb-17 04:30N 38°52' W 076°26'5 8.3
2018-Feb-17 03:58N 38°56' W 076°26'4 8.0
2018-Feb-17 03:28N 38°60' W 076°23'6 7.3
2018-Feb-17 02:35N 39°06' W 076°22'37 5.5
2018-Feb-16 19:56N 39°32' W 075°48'3 7.2
2018-Feb-16 19:30N 39°33' W 075°44'4 7.5
2018-Feb-16 19:00N 39°33' W 075°39'4 7.3
2018-Feb-16 18:30N 39°34' W 075°34'2 4.6
2018-Feb-16 18:00N 39°36' W 075°34'2 4.6
2018-Feb-16 17:30N 39°38' W 075°34'2 4.7
2018-Feb-16 17:00N 39°40' W 075°32'2 4.5
2018-Feb-16 16:30N 39°42' W 075°31'2 3.7
2018-Feb-16 16:00N 39°44' W 075°30'2 4.3
2018-Feb-16 15:30N 39°45' W 075°28'2 4.4
2018-Feb-16 15:00N 39°47' W 075°27'1 1.4
2018-Feb-16 14:30N 39°48' W 075°26'1 1.1
2018-Feb-16 14:00N 39°48' W 075°25'0 0.5
2018-Feb-16 13:30N 39°48' W 075°25'0 0.1
2018-Feb-16 13:00N 39°48' W 075°25'1 1.7
2018-Feb-16 12:30N 39°48' W 075°26'3 5.0
2018-Feb-16 12:00N 39°49' W 075°23'0 0.0
2018-Feb-16 11:30N 39°49' W 075°23'0 0.0
2018-Feb-16 11:00N 39°49' W 075°23'0 0.0
2018-Feb-16 10:30N 39°49' W 075°23'0 0.0
2018-Feb-16 10:00N 39°49' W 075°23'0 0.0
2018-Feb-16 09:30N 39°49' W 075°23'0 0.0
2018-Feb-16 09:01N 39°49' W 075°23'0 0.0
2018-Feb-16 08:30N 39°49' W 075°23'0 0.0
2018-Feb-16 08:00N 39°49' W 075°23'0 0.0
2018-Feb-16 07:30N 39°49' W 075°23'0 0.0
2018-Feb-16 07:00N 39°49' W 075°24'0 0.0
2018-Feb-16 06:31N 39°49' W 075°23'0 0.0
2018-Feb-16 06:00N 39°49' W 075°23'0 0.0
2018-Feb-16 05:30N 39°49' W 075°24'0 0.0
2018-Feb-16 05:01N 39°49' W 075°23'0 0.0
2018-Feb-16 04:30N 39°49' W 075°23'0 0.0
2018-Feb-16 04:00N 39°49' W 075°23'0 0.0
2018-Feb-16 03:31N 39°49' W 075°23'0 0.0
2018-Feb-16 03:00N 39°49' W 075°23'0 0.0
2018-Feb-16 02:30N 39°49' W 075°23'0 0.0
2018-Feb-16 02:00N 39°49' W 075°23'0 0.0
2018-Feb-16 01:30N 39°49' W 075°23'5 2.9
2018-Feb-15 23:50N 39°46' W 075°28'2 6.9
2018-Feb-15 23:30N 39°44' W 075°29'3 6.7
2018-Feb-15 23:00N 39°41' W 075°31'3 6.1
2018-Feb-15 22:30N 39°38' W 075°34'3 5.6
2018-Feb-15 22:00N 39°36' W 075°34'2 3.8
2018-Feb-15 21:30N 39°34' W 075°33'3 5.0
2018-Feb-15 21:00N 39°36' W 075°34'3 6.7
2018-Feb-15 20:30N 39°39' W 075°33'4 7.3
2018-Feb-15 20:00N 39°43' W 075°31'3 6.6
2018-Feb-15 19:30N 39°46' W 075°29'3 5.8
2018-Feb-15 19:00N 39°48' W 075°26'3 5.4
2018-Feb-15 18:31N 39°49' W 075°23'1 1.4
2018-Feb-15 18:00N 39°49' W 075°22'0 0.2
2018-Feb-15 17:30N 39°50' W 075°22'1 2.3
2018-Feb-15 17:00N 39°49' W 075°24'0 0.4
2018-Feb-15 16:30N 39°49' W 075°24'1 1.8
2018-Feb-15 16:00N 39°48' W 075°25'1 1.1
2018-Feb-15 15:30N 39°49' W 075°24'1 2.3
2018-Feb-15 15:01N 39°48' W 075°25'2 2.7
2018-Feb-15 14:23N 39°47' W 075°27'1 2.8
2018-Feb-15 14:00N 39°48' W 075°26'0 0.8
2018-Feb-15 13:30N 39°48' W 075°25'2 4.4
2018-Feb-15 13:00N 39°49' W 075°23'1 1.5
2018-Feb-15 12:31N 39°50' W 075°22'1 1.8
2018-Feb-15 12:01N 39°49' W 075°24'0 0.0
2018-Feb-15 11:30N 39°49' W 075°24'0 0.0
2018-Feb-15 11:00N 39°49' W 075°24'0 0.0
2018-Feb-15 10:30N 39°49' W 075°24'0 0.0
2018-Feb-15 10:00N 39°49' W 075°24'0 0.0
2018-Feb-15 09:30N 39°49' W 075°24'0 0.0
2018-Feb-15 09:00N 39°49' W 075°24'0 0.0
2018-Feb-15 08:30N 39°49' W 075°24'0 0.0
2018-Feb-15 08:00N 39°49' W 075°23'0 0.0
2018-Feb-15 07:30N 39°49' W 075°24'0 0.0
2018-Feb-15 07:00N 39°49' W 075°24'0 0.0
2018-Feb-15 06:30N 39°49' W 075°24'0 0.0
2018-Feb-15 06:00N 39°49' W 075°24'0 0.0
2018-Feb-15 05:31N 39°49' W 075°24'0 0.0
2018-Feb-15 05:00N 39°49' W 075°24'0 0.0
2018-Feb-15 04:30N 39°49' W 075°24'0 0.0
2018-Feb-15 04:00N 39°49' W 075°24'0 0.0
2018-Feb-15 03:31N 39°49' W 075°24'0 0.0
2018-Feb-15 03:00N 39°49' W 075°24'0 0.0
2018-Feb-15 02:30N 39°49' W 075°24'2 3.5
2018-Feb-15 02:00N 39°48' W 075°25'4 9.0
2018-Feb-15 01:30N 39°45' W 075°29'4 8.9
2018-Feb-15 01:00N 39°41' W 075°32'4 8.4
2018-Feb-15 00:30N 39°37' W 075°35'4 7.0
2018-Feb-15 00:00N 39°34' W 075°34'510.0
2018-Feb-14 23:30N 39°33' W 075°40'510.4
2018-Feb-14 23:00N 39°32' W 075°47'5 9.7
2018-Feb-14 22:30N 39°31' W 075°53'1 2.0
2018-Feb-14 22:00N 39°30' W 075°54'3 5.9
2018-Feb-14 21:30N 39°32' W 075°51'3 6.0
2018-Feb-14 21:00N 39°32' W 075°47'3 6.8
2018-Feb-14 20:30N 39°33' W 075°43'3 7.0
2018-Feb-14 20:00N 39°33' W 075°38'4 7.3
2018-Feb-14 19:30N 39°34' W 075°34'4 7.9
2018-Feb-14 19:00N 39°38' W 075°35'4 8.3
2018-Feb-14 18:30N 39°41' W 075°31'4 7.8
2018-Feb-14 18:00N 39°45' W 075°30'3 6.7
2018-Feb-14 17:30N 39°47' W 075°27'0 0.7
2018-Feb-14 17:00N 39°47' W 075°27'2 3.8
2018-Feb-14 16:30N 39°48' W 075°25'0 0.4
2018-Feb-14 16:00N 39°48' W 075°25'2 4.2
2018-Feb-14 15:30N 39°47' W 075°27'1 1.4
2018-Feb-14 15:00N 39°48' W 075°26'1 3.0
2018-Feb-14 14:30N 39°49' W 075°24'2 3.7
2018-Feb-14 14:00N 39°50' W 075°22'0 0.0
2018-Feb-14 13:30N 39°50' W 075°22'1 1.7
2018-Feb-14 13:00N 39°49' W 075°23'0 0.0
2018-Feb-14 12:30N 39°49' W 075°23'1 2.3
2018-Feb-14 12:00N 39°48' W 075°25'1 2.4
2018-Feb-14 11:30N 39°49' W 075°23'0 0.0
2018-Feb-14 11:00N 39°49' W 075°23'0 0.0
2018-Feb-14 10:30N 39°49' W 075°23'0 0.0
2018-Feb-14 10:00N 39°49' W 075°23'0 0.0
2018-Feb-14 09:30N 39°49' W 075°23'0 0.0
2018-Feb-14 09:00N 39°49' W 075°23'0 0.0
2018-Feb-14 08:30N 39°49' W 075°23'0 0.0
2018-Feb-14 08:00N 39°49' W 075°23'0 0.0
2018-Feb-14 07:30N 39°49' W 075°23'0 0.0
2018-Feb-14 07:01N 39°49' W 075°23'0 0.0
2018-Feb-14 06:30N 39°49' W 075°23'0 0.0
2018-Feb-14 06:00N 39°49' W 075°23'0 0.0
2018-Feb-14 05:31N 39°49' W 075°23'0 0.0
2018-Feb-14 05:00N 39°49' W 075°23'0 0.0
2018-Feb-14 04:30N 39°49' W 075°23'0 0.0
2018-Feb-14 04:00N 39°49' W 075°23'0 0.0
2018-Feb-14 03:29N 39°49' W 075°23'0 0.0
2018-Feb-14 03:00N 39°49' W 075°23'0 0.0
2018-Feb-14 02:30N 39°49' W 075°23'0 0.0
2018-Feb-13 22:33N 39°49' W 075°23'0 0.2
2018-Feb-13 22:30N 39°49' W 075°23'0 0.0
2018-Feb-13 22:00N 39°49' W 075°23'0 0.5
2018-Feb-13 21:31N 39°49' W 075°24'0 0.8
2018-Feb-13 21:01N 39°49' W 075°24'0 0.0
2018-Feb-13 20:31N 39°49' W 075°24'1 2.9
2018-Feb-13 20:00N 39°48' W 075°26'2 4.4
2018-Feb-13 19:30N 39°49' W 075°23'0 0.0
2018-Feb-13 19:00N 39°49' W 075°23'0 0.0
2018-Feb-13 18:30N 39°49' W 075°23'0 0.0
2018-Feb-13 18:00N 39°49' W 075°23'0 0.0
2018-Feb-13 17:30N 39°49' W 075°23'0 0.0
2018-Feb-13 17:00N 39°49' W 075°23'0 0.3
2018-Feb-13 16:30N 39°49' W 075°23'0 0.1
2018-Feb-13 16:00N 39°49' W 075°23'0 0.2
2018-Feb-13 15:31N 39°49' W 075°24'0 0.0
2018-Feb-13 15:00N 39°49' W 075°24'0 0.0
2018-Feb-13 14:30N 39°49' W 075°24'0 0.0
2018-Feb-13 14:01N 39°49' W 075°24'0 0.0
2018-Feb-13 13:30N 39°49' W 075°24'0 0.1
2018-Feb-13 13:00N 39°49' W 075°24'1 1.0
2018-Feb-13 12:31N 39°49' W 075°24'0 1.0
2018-Feb-13 12:00N 39°49' W 075°24'0 0.0
2018-Feb-13 11:30N 39°49' W 075°24'0 0.0
2018-Feb-13 11:00N 39°49' W 075°24'0 0.0
2018-Feb-13 10:30N 39°49' W 075°24'0 0.0
2018-Feb-13 10:00N 39°49' W 075°24'0 0.0
2018-Feb-13 09:30N 39°49' W 075°24'0 0.0
2018-Feb-13 09:00N 39°49' W 075°24'0 0.0
2018-Feb-13 08:30N 39°49' W 075°24'0 0.0
2018-Feb-13 08:00N 39°49' W 075°24'0 0.0
2018-Feb-13 07:30N 39°49' W 075°24'0 0.0
2018-Feb-13 07:00N 39°49' W 075°24'0 0.0
2018-Feb-13 06:30N 39°49' W 075°24'0 0.0
2018-Feb-13 06:00N 39°49' W 075°24'0 0.0
2018-Feb-13 05:30N 39°49' W 075°24'0 0.0
2018-Feb-13 05:00N 39°49' W 075°24'0 0.0
2018-Feb-13 04:26N 39°49' W 075°24'0 0.0
2018-Feb-13 04:00N 39°49' W 075°24'0 0.0
2018-Feb-13 03:30N 39°49' W 075°24'0 0.0
2018-Feb-13 03:00N 39°49' W 075°24'0 0.0
2018-Feb-13 02:30N 39°49' W 075°24'0 0.0
2018-Feb-13 02:00N 39°49' W 075°24'0 0.0
2018-Feb-13 01:30N 39°49' W 075°24'0 0.0
2018-Feb-13 01:00N 39°49' W 075°24'0 0.0
2018-Feb-13 00:30N 39°49' W 075°24'0 0.0
2018-Feb-13 00:00N 39°49' W 075°24'0 0.0
2018-Feb-12 23:31N 39°49' W 075°24'0 0.0
2018-Feb-12 23:00N 39°49' W 075°24'  
Track history (hours):
 
Tides and Currents Weather Stations Pressure Air Temp Water Temp Dewpoint Dewpoint Depression Visibility Wind Speed Wind Dir Waves Ship Positions

Captain Ed

Owner: Norfolk Dredging Company, Chesapeake, VA. More information available from US FCC via Universal Licensing System and Coast Guard Vessel Documentation Center.

Last reported at 2018-Feb-22 22:30 UTC. Time now 2018-Feb-22 22:35 UTC.
Position N 39°49' W 075°23'.

Length 22 m; draft 3 m.

Type: Tug. MMSI: 367473210.

Date/timePositionNaut miles runAvg speedWind from/ knotsBaromVisibWave heightAir tempDewpointWater temp
2018-Feb-22 22:30N 39°49' W 075°23'0 0.0
2018-Feb-22 22:00N 39°49' W 075°23'0 0.0
2018-Feb-22 21:30N 39°49' W 075°23'0 0.0
2018-Feb-22 21:00N 39°49' W 075°23'0 0.0
2018-Feb-22 20:31N 39°49' W 075°23'3 6.2
2018-Feb-22 20:00N 39°47' W 075°27'1 1.1
2018-Feb-22 19:31N 39°47' W 075°26'1 2.6
2018-Feb-22 19:01N 39°48' W 075°25'0 0.2
2018-Feb-22 18:31N 39°48' W 075°25'0 0.2
2018-Feb-22 18:01N 39°48' W 075°25'0 0.0
2018-Feb-22 17:30N 39°48' W 075°25'0 0.0
2018-Feb-22 17:01N 39°48' W 075°25'0 0.0
2018-Feb-22 16:30N 39°48' W 075°25'0 0.0
2018-Feb-22 16:00N 39°48' W 075°25'0 0.0
2018-Feb-22 15:30N 39°48' W 075°25'0 0.0
2018-Feb-22 15:01N 39°48' W 075°25'0 0.0
2018-Feb-22 14:29N 39°48' W 075°25'1 2.9
2018-Feb-22 14:00N 39°47' W 075°26'0 1.0
2018-Feb-22 13:31N 39°47' W 075°27'1 2.3
2018-Feb-22 13:00N 39°48' W 075°26'1 1.4
2018-Feb-22 12:30N 39°48' W 075°25'0 0.0
2018-Feb-22 12:01N 39°48' W 075°25'0 0.0
2018-Feb-22 11:30N 39°48' W 075°25'0 0.0
2018-Feb-22 11:01N 39°48' W 075°25'0 0.0
2018-Feb-22 10:30N 39°48' W 075°25'0 0.0
2018-Feb-22 10:00N 39°48' W 075°25'0 0.0
2018-Feb-22 09:30N 39°48' W 075°25'0 0.0
2018-Feb-22 08:58N 39°48' W 075°25'0 0.0
2018-Feb-22 08:30N 39°48' W 075°25'2 3.7
2018-Feb-22 08:00N 39°47' W 075°27'0 0.0
2018-Feb-22 07:31N 39°47' W 075°27'0 0.0
2018-Feb-22 07:00N 39°47' W 075°27'0 0.0
2018-Feb-22 06:30N 39°47' W 075°27'0 0.1
2018-Feb-22 06:01N 39°47' W 075°27'0 0.0
2018-Feb-22 05:31N 39°47' W 075°27'2 3.6
2018-Feb-22 05:00N 39°48' W 075°25'0 0.4
2018-Feb-22 04:30N 39°48' W 075°25'1 2.5
2018-Feb-22 04:01N 39°49' W 075°24'1 2.4
2018-Feb-22 03:30N 39°48' W 075°25'0 0.5
2018-Feb-22 03:00N 39°48' W 075°25'0 0.4
2018-Feb-22 02:30N 39°48' W 075°25'0 0.0
2018-Feb-22 02:01N 39°48' W 075°25'0 0.0
2018-Feb-22 01:31N 39°48' W 075°25'2 3.6
2018-Feb-22 01:01N 39°47' W 075°27'0 0.0
2018-Feb-22 00:30N 39°47' W 075°27'2 3.6
2018-Feb-22 00:01N 39°48' W 075°25'0 0.0
2018-Feb-21 23:29N 39°48' W 075°25'2 4.0
2018-Feb-21 23:01N 39°49' W 075°23'4 7.1
2018-Feb-21 22:30N 39°47' W 075°27'1 1.3
2018-Feb-21 22:00N 39°47' W 075°26'2 3.6
2018-Feb-21 21:30N 39°49' W 075°24'1 2.9
2018-Feb-21 21:01N 39°50' W 075°23'1 1.3
2018-Feb-21 20:31N 39°49' W 075°23'0 0.0
2018-Feb-21 20:00N 39°49' W 075°23'0 0.0
2018-Feb-21 19:30N 39°49' W 075°23'0 0.0
2018-Feb-21 19:00N 39°49' W 075°23'2 3.1
2018-Feb-21 18:30N 39°48' W 075°25'2 3.4
2018-Feb-21 18:00N 39°49' W 075°23'0 0.1
2018-Feb-21 17:30N 39°49' W 075°23'0 0.3
2018-Feb-21 17:00N 39°49' W 075°23'2 3.1
2018-Feb-21 16:30N 39°48' W 075°25'2 3.1
2018-Feb-21 16:00N 39°49' W 075°23'0 0.0
2018-Feb-21 15:30N 39°49' W 075°23'2 3.1
2018-Feb-21 15:00N 39°48' W 075°25'1 2.0
2018-Feb-21 14:30N 39°48' W 075°26'3 6.2
2018-Feb-21 14:00N 39°50' W 075°23'2 4.3
2018-Feb-21 13:30N 39°48' W 075°25'0 0.1
2018-Feb-21 13:00N 39°48' W 075°25'0 0.5
2018-Feb-21 12:30N 39°48' W 075°25'2 3.4
2018-Feb-21 12:00N 39°49' W 075°23'0 0.0
2018-Feb-21 11:30N 39°49' W 075°23'0 0.0
2018-Feb-21 11:00N 39°49' W 075°23'0 0.0
2018-Feb-21 10:31N 39°49' W 075°23'0 0.0
2018-Feb-21 10:00N 39°49' W 075°23'0 0.0
2018-Feb-21 09:30N 39°49' W 075°23'0 0.0
2018-Feb-21 09:00N 39°49' W 075°23'0 0.0
2018-Feb-21 08:29N 39°49' W 075°23'0 0.0
2018-Feb-21 08:00N 39°49' W 075°23'0 0.0
2018-Feb-21 07:30N 39°49' W 075°23'0 0.0
2018-Feb-21 07:00N 39°49' W 075°23'0 0.0
2018-Feb-21 06:30N 39°49' W 075°23'0 0.0
2018-Feb-21 06:00N 39°49' W 075°23'0 0.0
2018-Feb-21 05:30N 39°49' W 075°23'0 0.0
2018-Feb-21 05:00N 39°49' W 075°23'0 0.0
2018-Feb-21 04:30N 39°49' W 075°23'0 0.0
2018-Feb-21 04:00N 39°49' W 075°23'0 0.0
2018-Feb-21 03:30N 39°49' W 075°23'0 0.0
2018-Feb-21 03:00N 39°49' W 075°23'0 0.0
2018-Feb-21 02:30N 39°49' W 075°23'0 0.0
2018-Feb-21 02:00N 39°49' W 075°23'0 0.0
2018-Feb-21 01:30N 39°49' W 075°23'0 0.0
2018-Feb-21 01:00N 39°49' W 075°23'0 0.0
2018-Feb-21 00:31N 39°49' W 075°23'0 0.0
2018-Feb-21 00:00N 39°49' W 075°23'0 0.0
2018-Feb-20 23:30N 39°49' W 075°23'0 0.0
2018-Feb-20 23:00N 39°49' W 075°23'0 0.5
2018-Feb-20 22:30N 39°49' W 075°24'0 0.8
2018-Feb-20 22:00N 39°49' W 075°23'0 0.3
2018-Feb-20 21:30N 39°49' W 075°23'0 0.0
2018-Feb-20 21:01N 39°49' W 075°23'0 0.0
2018-Feb-20 20:30N 39°49' W 075°23'0 0.0
2018-Feb-20 20:00N 39°49' W 075°23'0 0.0
2018-Feb-20 19:30N 39°49' W 075°23'0 0.0
2018-Feb-20 19:00N 39°49' W 075°23'0 0.0
2018-Feb-20 18:30N 39°49' W 075°23'0 0.0
2018-Feb-20 18:00N 39°49' W 075°23'0 0.0
2018-Feb-20 17:30N 39°49' W 075°23'0 1.0
2018-Feb-20 17:00N 39°50' W 075°23'0 0.0
2018-Feb-20 16:30N 39°50' W 075°23'0 0.0
2018-Feb-20 16:00N 39°50' W 075°23'0 0.3
2018-Feb-20 15:30N 39°49' W 075°23'0 0.7
2018-Feb-20 14:59N 39°49' W 075°23'0 0.0
2018-Feb-20 14:29N 39°49' W 075°23'0 0.0
2018-Feb-20 14:00N 39°49' W 075°23'0 0.0
2018-Feb-20 13:30N 39°49' W 075°23'0 0.0
2018-Feb-20 13:00N 39°49' W 075°23'0 0.0
2018-Feb-20 12:30N 39°49' W 075°23'0 0.0
2018-Feb-20 12:01N 39°49' W 075°23'0 0.0
2018-Feb-20 11:31N 39°49' W 075°23'0 0.0
2018-Feb-20 11:01N 39°49' W 075°23'0 0.0
2018-Feb-20 10:30N 39°49' W 075°23'0 0.0
2018-Feb-20 10:00N 39°49' W 075°23'1 1.6
2018-Feb-20 09:31N 39°49' W 075°23'0 0.1
2018-Feb-20 09:00N 39°49' W 075°22'0 0.1
2018-Feb-20 08:31N 39°50' W 075°22'0 0.1
2018-Feb-20 08:00N 39°49' W 075°22'0 0.0
2018-Feb-20 07:30N 39°49' W 075°22'0 0.0
2018-Feb-20 07:00N 39°49' W 075°22'0 0.0
2018-Feb-20 06:31N 39°49' W 075°22'0 0.0
2018-Feb-20 06:01N 39°49' W 075°22'0 0.0
2018-Feb-20 05:31N 39°49' W 075°22'0 0.1
2018-Feb-20 05:00N 39°49' W 075°22'0 0.1
2018-Feb-20 04:30N 39°49' W 075°23'2 3.3
2018-Feb-20 04:00N 39°49' W 075°24'1 1.9
2018-Feb-20 03:30N 39°48' W 075°25'2 4.5
2018-Feb-20 03:00N 39°49' W 075°23'0 0.2
2018-Feb-20 02:30N 39°49' W 075°23'2 3.1
2018-Feb-20 02:00N 39°48' W 075°25'1 1.3
2018-Feb-20 01:30N 39°48' W 075°25'0 0.0
2018-Feb-20 01:00N 39°48' W 075°25'0 0.0
2018-Feb-20 00:30N 39°48' W 075°25'0 0.0
2018-Feb-20 00:00N 39°48' W 075°25'0 0.0
2018-Feb-19 23:30N 39°48' W 075°25'0 0.0
2018-Feb-19 23:00N 39°48' W 075°25'0 0.0
2018-Feb-19 22:30N 39°48' W 075°25'0 0.0
2018-Feb-19 22:00N 39°48' W 075°25'0 0.0
2018-Feb-19 21:30N 39°48' W 075°25'0 0.1
2018-Feb-19 21:00N 39°48' W 075°26'1 2.1
2018-Feb-19 20:30N 39°48' W 075°24'1 1.7
2018-Feb-19 20:01N 39°48' W 075°25'0 0.7
2018-Feb-19 19:30N 39°48' W 075°25'2 4.1
2018-Feb-19 19:00N 39°47' W 075°27'5 9.5
2018-Feb-19 18:31N 39°43' W 075°30'510.2
2018-Feb-19 18:01N 39°38' W 075°34'5 9.1
2018-Feb-19 17:31N 39°34' W 075°33'4 8.3
2018-Feb-19 17:01N 39°33' W 075°38'4 8.9
2018-Feb-19 16:31N 39°32' W 075°44'4 8.7
2018-Feb-19 16:01N 39°32' W 075°50'4 8.8
2018-Feb-19 15:31N 39°30' W 075°55'5 9.6
2018-Feb-19 15:01N 39°27' W 075°59'4 8.6
2018-Feb-19 14:31N 39°24' W 076°03'5 9.0
2018-Feb-19 13:58N 39°22' W 076°09'4 8.0
2018-Feb-19 13:30N 39°19' W 076°12'6 8.3
2018-Feb-19 12:49N 39°14' W 076°15'2 8.0
2018-Feb-19 12:31N 39°12' W 076°16'4 8.1
2018-Feb-19 12:00N 39°08' W 076°20'4 8.3
2018-Feb-19 11:30N 39°04' W 076°21'4 8.7
2018-Feb-19 11:00N 39°00' W 076°23'4 8.3
2018-Feb-19 10:30N 38°56' W 076°24'4 8.4
2018-Feb-19 10:00N 38°52' W 076°26'4 8.6
2018-Feb-19 09:30N 38°48' W 076°27'93 7.7
2018-Feb-18 21:25N 37°16' W 076°10'3 7.2
2018-Feb-18 20:58N 37°12' W 076°11'4 7.5
2018-Feb-18 20:27N 37°09' W 076°12'4 7.5
2018-Feb-18 19:57N 37°05' W 076°13'4 7.8
2018-Feb-18 19:27N 37°01' W 076°15'4 8.5
2018-Feb-18 18:58N 36°59' W 076°19'4 9.0
2018-Feb-18 18:30N 36°55' W 076°20'4 8.4
2018-Feb-18 18:00N 36°51' W 076°18'3 5.0
2018-Feb-18 17:30N 36°49' W 076°17'3 5.1
2018-Feb-18 17:00N 36°46' W 076°18'3 5.1
2018-Feb-18 16:29N 36°44' W 076°16'2 3.2
2018-Feb-18 16:00N 36°43' W 076°14'1 0.4
2018-Feb-18 12:26N 36°43' W 076°13'0 0.0
2018-Feb-18 01:41N 36°43' W 076°13'1 6.4
2018-Feb-18 01:30N 36°43' W 076°14'1 2.4
2018-Feb-18 01:00N 36°44' W 076°15'2 4.6
2018-Feb-18 00:30N 36°45' W 076°18'3 5.7
2018-Feb-18 00:00N 36°48' W 076°18'4 7.4
2018-Feb-17 23:30N 36°51' W 076°19'2 3.6
2018-Feb-17 23:00N 36°52' W 076°20'4 7.4
2018-Feb-17 22:28N 36°56' W 076°20'3 6.1
2018-Feb-17 21:58N 36°59' W 076°19'3 5.4
2018-Feb-17 21:28N 37°01' W 076°16'3 6.1
2018-Feb-17 20:57N 37°03' W 076°14'4 7.2
2018-Feb-17 20:27N 37°06' W 076°12'4 7.3
2018-Feb-17 19:57N 37°10' W 076°11'97 6.6
2018-Feb-17 05:13N 38°46' W 076°28'2 7.9
2018-Feb-17 04:58N 38°48' W 076°27'4 8.2
2018-Feb-17 04:30N 38°52' W 076°26'5 8.3
2018-Feb-17 03:58N 38°56' W 076°26'4 8.0
2018-Feb-17 03:28N 38°60' W 076°23'6 7.3
2018-Feb-17 02:35N 39°06' W 076°22'37 5.5
2018-Feb-16 19:56N 39°32' W 075°48'3 7.2
2018-Feb-16 19:30N 39°33' W 075°44'4 7.5
2018-Feb-16 19:00N 39°33' W 075°39'4 7.3
2018-Feb-16 18:30N 39°34' W 075°34'2 4.6
2018-Feb-16 18:00N 39°36' W 075°34'2 4.6
2018-Feb-16 17:30N 39°38' W 075°34'2 4.7
2018-Feb-16 17:00N 39°40' W 075°32'2 4.5
2018-Feb-16 16:30N 39°42' W 075°31'2 3.7
2018-Feb-16 16:00N 39°44' W 075°30'2 4.3
2018-Feb-16 15:30N 39°45' W 075°28'2 4.4
2018-Feb-16 15:00N 39°47' W 075°27'1 1.4
2018-Feb-16 14:30N 39°48' W 075°26'1 1.1
2018-Feb-16 14:00N 39°48' W 075°25'0 0.5
2018-Feb-16 13:30N 39°48' W 075°25'0 0.1
2018-Feb-16 13:00N 39°48' W 075°25'1 1.7
2018-Feb-16 12:30N 39°48' W 075°26'3 5.0
2018-Feb-16 12:00N 39°49' W 075°23'0 0.0
2018-Feb-16 11:30N 39°49' W 075°23'0 0.0
2018-Feb-16 11:00N 39°49' W 075°23'0 0.0
2018-Feb-16 10:30N 39°49' W 075°23'0 0.0
2018-Feb-16 10:00N 39°49' W 075°23'0 0.0
2018-Feb-16 09:30N 39°49' W 075°23'0 0.0
2018-Feb-16 09:01N 39°49' W 075°23'0 0.0
2018-Feb-16 08:30N 39°49' W 075°23'0 0.0
2018-Feb-16 08:00N 39°49' W 075°23'0 0.0
2018-Feb-16 07:30N 39°49' W 075°23'0 0.0
2018-Feb-16 07:00N 39°49' W 075°24'0 0.0
2018-Feb-16 06:31N 39°49' W 075°23'0 0.0
2018-Feb-16 06:00N 39°49' W 075°23'0 0.0
2018-Feb-16 05:30N 39°49' W 075°24'0 0.0
2018-Feb-16 05:01N 39°49' W 075°23'0 0.0
2018-Feb-16 04:30N 39°49' W 075°23'0 0.0
2018-Feb-16 04:00N 39°49' W 075°23'0 0.0
2018-Feb-16 03:31N 39°49' W 075°23'0 0.0
2018-Feb-16 03:00N 39°49' W 075°23'0 0.0
2018-Feb-16 02:30N 39°49' W 075°23'0 0.0
2018-Feb-16 02:00N 39°49' W 075°23'0 0.0
2018-Feb-16 01:30N 39°49' W 075°23'5 2.9
2018-Feb-15 23:50N 39°46' W 075°28'2 6.9
2018-Feb-15 23:30N 39°44' W 075°29'3 6.7
2018-Feb-15 23:00N 39°41' W 075°31'3 6.1
2018-Feb-15 22:30N 39°38' W 075°34'3 5.6
2018-Feb-15 22:00N 39°36' W 075°34'2 3.8
2018-Feb-15 21:30N 39°34' W 075°33'3 5.0
2018-Feb-15 21:00N 39°36' W 075°34'3 6.7
2018-Feb-15 20:30N 39°39' W 075°33'4 7.3
2018-Feb-15 20:00N 39°43' W 075°31'3 6.6
2018-Feb-15 19:30N 39°46' W 075°29'3 5.8
2018-Feb-15 19:00N 39°48' W 075°26'3 5.4
2018-Feb-15 18:31N 39°49' W 075°23'1 1.4
2018-Feb-15 18:00N 39°49' W 075°22'0 0.2
2018-Feb-15 17:30N 39°50' W 075°22'1 2.3
2018-Feb-15 17:00N 39°49' W 075°24'0 0.4
2018-Feb-15 16:30N 39°49' W 075°24'1 1.8
2018-Feb-15 16:00N 39°48' W 075°25'1 1.1
2018-Feb-15 15:30N 39°49' W 075°24'1 2.3
2018-Feb-15 15:01N 39°48' W 075°25'2 2.7
2018-Feb-15 14:23N 39°47' W 075°27'1 2.8
2018-Feb-15 14:00N 39°48' W 075°26'0 0.8
2018-Feb-15 13:30N 39°48' W 075°25'2 4.4
2018-Feb-15 13:00N 39°49' W 075°23'1 1.5
2018-Feb-15 12:31N 39°50' W 075°22'1 1.8
2018-Feb-15 12:01N 39°49' W 075°24'0 0.0
2018-Feb-15 11:30N 39°49' W 075°24'0 0.0
2018-Feb-15 11:00N 39°49' W 075°24'0 0.0
2018-Feb-15 10:30N 39°49' W 075°24'0 0.0
2018-Feb-15 10:00N 39°49' W 075°24'0 0.0
2018-Feb-15 09:30N 39°49' W 075°24'0 0.0
2018-Feb-15 09:00N 39°49' W 075°24'0 0.0
2018-Feb-15 08:30N 39°49' W 075°24'0 0.0
2018-Feb-15 08:00N 39°49' W 075°23'0 0.0
2018-Feb-15 07:30N 39°49' W 075°24'0 0.0
2018-Feb-15 07:00N 39°49' W 075°24'0 0.0
2018-Feb-15 06:30N 39°49' W 075°24'0 0.0
2018-Feb-15 06:00N 39°49' W 075°24'0 0.0
2018-Feb-15 05:31N 39°49' W 075°24'0 0.0
2018-Feb-15 05:00N 39°49' W 075°24'0 0.0
2018-Feb-15 04:30N 39°49' W 075°24'0 0.0
2018-Feb-15 04:00N 39°49' W 075°24'0 0.0
2018-Feb-15 03:31N 39°49' W 075°24'0 0.0
2018-Feb-15 03:00N 39°49' W 075°24'0 0.0
2018-Feb-15 02:30N 39°49' W 075°24'2 3.5
2018-Feb-15 02:00N 39°48' W 075°25'4 9.0
2018-Feb-15 01:30N 39°45' W 075°29'4 8.9
2018-Feb-15 01:00N 39°41' W 075°32'4 8.4
2018-Feb-15 00:30N 39°37' W 075°35'4 7.0
2018-Feb-15 00:00N 39°34' W 075°34'510.0
2018-Feb-14 23:30N 39°33' W 075°40'510.4
2018-Feb-14 23:00N 39°32' W 075°47'5 9.7
2018-Feb-14 22:30N 39°31' W 075°53'1 2.0
2018-Feb-14 22:00N 39°30' W 075°54'3 5.9
2018-Feb-14 21:30N 39°32' W 075°51'3 6.0
2018-Feb-14 21:00N 39°32' W 075°47'3 6.8
2018-Feb-14 20:30N 39°33' W 075°43'3 7.0
2018-Feb-14 20:00N 39°33' W 075°38'4 7.3
2018-Feb-14 19:30N 39°34' W 075°34'4 7.9
2018-Feb-14 19:00N 39°38' W 075°35'4 8.3
2018-Feb-14 18:30N 39°41' W 075°31'4 7.8
2018-Feb-14 18:00N 39°45' W 075°30'3 6.7
2018-Feb-14 17:30N 39°47' W 075°27'0 0.7
2018-Feb-14 17:00N 39°47' W 075°27'2 3.8
2018-Feb-14 16:30N 39°48' W 075°25'0 0.4
2018-Feb-14 16:00N 39°48' W 075°25'2 4.2
2018-Feb-14 15:30N 39°47' W 075°27'1 1.4
2018-Feb-14 15:00N 39°48' W 075°26'1 3.0
2018-Feb-14 14:30N 39°49' W 075°24'2 3.7
2018-Feb-14 14:00N 39°50' W 075°22'0 0.0
2018-Feb-14 13:30N 39°50' W 075°22'1 1.7
2018-Feb-14 13:00N 39°49' W 075°23'0 0.0
2018-Feb-14 12:30N 39°49' W 075°23'1 2.3
2018-Feb-14 12:00N 39°48' W 075°25'1 2.4
2018-Feb-14 11:30N 39°49' W 075°23'0 0.0
2018-Feb-14 11:00N 39°49' W 075°23'0 0.0
2018-Feb-14 10:30N 39°49' W 075°23'0 0.0
2018-Feb-14 10:00N 39°49' W 075°23'0 0.0
2018-Feb-14 09:30N 39°49' W 075°23'0 0.0
2018-Feb-14 09:00N 39°49' W 075°23'0 0.0
2018-Feb-14 08:30N 39°49' W 075°23'0 0.0
2018-Feb-14 08:00N 39°49' W 075°23'0 0.0
2018-Feb-14 07:30N 39°49' W 075°23'0 0.0
2018-Feb-14 07:01N 39°49' W 075°23'0 0.0
2018-Feb-14 06:30N 39°49' W 075°23'0 0.0
2018-Feb-14 06:00N 39°49' W 075°23'0 0.0
2018-Feb-14 05:31N 39°49' W 075°23'0 0.0
2018-Feb-14 05:00N 39°49' W 075°23'0 0.0
2018-Feb-14 04:30N 39°49' W 075°23'0 0.0
2018-Feb-14 04:00N 39°49' W 075°23'0 0.0
2018-Feb-14 03:29N 39°49' W 075°23'0 0.0
2018-Feb-14 03:00N 39°49' W 075°23'0 0.0
2018-Feb-14 02:30N 39°49' W 075°23'0 0.0
2018-Feb-13 22:33N 39°49' W 075°23'0 0.2
2018-Feb-13 22:30N 39°49' W 075°23'0 0.0
2018-Feb-13 22:00N 39°49' W 075°23'0 0.5
2018-Feb-13 21:31N 39°49' W 075°24'0 0.8
2018-Feb-13 21:01N 39°49' W 075°24'0 0.0
2018-Feb-13 20:31N 39°49' W 075°24'1 2.9
2018-Feb-13 20:00N 39°48' W 075°26'2 4.4
2018-Feb-13 19:30N 39°49' W 075°23'0 0.0
2018-Feb-13 19:00N 39°49' W 075°23'0 0.0
2018-Feb-13 18:30N 39°49' W 075°23'0 0.0
2018-Feb-13 18:00N 39°49' W 075°23'0 0.0
2018-Feb-13 17:30N 39°49' W 075°23'0 0.0
2018-Feb-13 17:00N 39°49' W 075°23'0 0.3
2018-Feb-13 16:30N 39°49' W 075°23'0 0.1
2018-Feb-13 16:00N 39°49' W 075°23'0 0.2
2018-Feb-13 15:31N 39°49' W 075°24'0 0.0
2018-Feb-13 15:00N 39°49' W 075°24'0 0.0
2018-Feb-13 14:30N 39°49' W 075°24'0 0.0
2018-Feb-13 14:01N 39°49' W 075°24'0 0.0
2018-Feb-13 13:30N 39°49' W 075°24'0 0.1
2018-Feb-13 13:00N 39°49' W 075°24'1 1.0
2018-Feb-13 12:31N 39°49' W 075°24'0 1.0
2018-Feb-13 12:00N 39°49' W 075°24'0 0.0
2018-Feb-13 11:30N 39°49' W 075°24'0 0.0
2018-Feb-13 11:00N 39°49' W 075°24'0 0.0
2018-Feb-13 10:30N 39°49' W 075°24'0 0.0
2018-Feb-13 10:00N 39°49' W 075°24'0 0.0
2018-Feb-13 09:30N 39°49' W 075°24'0 0.0
2018-Feb-13 09:00N 39°49' W 075°24'0 0.0
2018-Feb-13 08:30N 39°49' W 075°24'0 0.0
2018-Feb-13 08:00N 39°49' W 075°24'0 0.0
2018-Feb-13 07:30N 39°49' W 075°24'0 0.0
2018-Feb-13 07:00N 39°49' W 075°24'0 0.0
2018-Feb-13 06:30N 39°49' W 075°24'0 0.0
2018-Feb-13 06:00N 39°49' W 075°24'0 0.0
2018-Feb-13 05:30N 39°49' W 075°24'0 0.0
2018-Feb-13 05:00N 39°49' W 075°24'0 0.0
2018-Feb-13 04:26N 39°49' W 075°24'0 0.0
2018-Feb-13 04:00N 39°49' W 075°24'0 0.0
2018-Feb-13 03:30N 39°49' W 075°24'0 0.0
2018-Feb-13 03:00N 39°49' W 075°24'0 0.0
2018-Feb-13 02:30N 39°49' W 075°24'0 0.0
2018-Feb-13 02:00N 39°49' W 075°24'0 0.0
2018-Feb-13 01:30N 39°49' W 075°24'0 0.0
2018-Feb-13 01:00N 39°49' W 075°24'0 0.0
2018-Feb-13 00:30N 39°49' W 075°24'0 0.0
2018-Feb-13 00:00N 39°49' W 075°24'0 0.0
2018-Feb-12 23:31N 39°49' W 075°24'0 0.0
2018-Feb-12 23:00N 39°49' W 075°24'  

Dump ship's entire track history